createdAt,value
2018-09-28T00:01:18.287Z,99.90
2018-09-28T00:03:46.616Z,99.90
2018-09-28T00:06:14.905Z,99.90
2018-09-28T00:08:43.518Z,99.90
2018-09-28T00:11:11.900Z,99.90
2018-09-28T00:13:40.249Z,99.90
2018-09-28T00:16:08.577Z,99.90
2018-09-28T00:18:36.942Z,99.80
2018-09-28T00:21:05.205Z,99.50
2018-09-28T00:23:33.568Z,99.30
2018-09-28T00:26:01.967Z,99.00
2018-09-28T00:28:30.331Z,98.50
2018-09-28T00:30:58.639Z,97.70
2018-09-28T00:33:26.951Z,98.00
2018-09-28T00:35:55.249Z,97.90
2018-09-28T00:38:23.538Z,97.80
2018-09-28T00:40:51.873Z,97.50
2018-09-28T00:43:26.751Z,97.10
2018-09-28T00:45:55.014Z,97.00
2018-09-28T00:48:23.343Z,96.90
2018-09-28T00:50:51.683Z,96.40
2018-09-28T00:53:20.571Z,96.30
2018-09-28T00:55:48.933Z,95.90
2018-09-28T00:58:17.151Z,95.60
2018-09-28T01:00:45.482Z,95.50
2018-09-28T01:03:13.896Z,95.20
2018-09-28T01:05:42.369Z,94.70
2018-09-28T01:08:10.851Z,94.30
2018-09-28T01:10:39.244Z,93.90
2018-09-28T01:13:07.616Z,93.70
2018-09-28T01:15:36.015Z,92.80
2018-09-28T01:18:04.363Z,93.00
2018-09-28T01:20:32.727Z,92.70
2018-09-28T01:23:01.014Z,92.20
2018-09-28T01:25:29.401Z,92.40
2018-09-28T01:27:57.618Z,92.20
2018-09-28T01:30:26.038Z,92.00
2018-09-28T01:32:54.351Z,91.60
2018-09-28T01:35:22.876Z,91.60
2018-09-28T01:37:51.870Z,91.20
2018-09-28T01:40:20.663Z,90.70
2018-09-28T01:42:49.078Z,90.60
2018-09-28T01:45:17.582Z,90.00
2018-09-28T01:47:46.017Z,90.00
2018-09-28T01:50:14.636Z,88.90
2018-09-28T01:52:43.185Z,88.80
2018-09-28T01:55:11.851Z,88.20
2018-09-28T01:57:40.385Z,88.00
2018-09-28T02:00:09.194Z,88.40
2018-09-28T02:02:37.539Z,87.40
2018-09-28T02:05:06.522Z,87.50
2018-09-28T02:07:34.856Z,87.60
2018-09-28T02:10:03.152Z,87.40
2018-09-28T02:12:31.555Z,87.20
2018-09-28T02:14:59.785Z,86.50
2018-09-28T02:17:28.199Z,86.30
2018-09-28T02:19:56.703Z,85.60
2018-09-28T02:22:25.732Z,85.00
2018-09-28T02:24:54.354Z,84.60
2018-09-28T02:27:22.730Z,84.20
2018-09-28T02:29:51.002Z,83.50
2018-09-28T02:32:19.209Z,82.90
2018-09-28T02:34:47.802Z,82.80
2018-09-28T02:37:16.698Z,82.70
2018-09-28T02:39:44.956Z,81.70
2018-09-28T02:42:13.579Z,81.10
2018-09-28T02:44:42.410Z,81.60
2018-09-28T02:47:10.772Z,81.20
2018-09-28T02:49:39.078Z,80.00
2018-09-28T02:52:07.308Z,80.30
2018-09-28T02:54:35.787Z,80.30
2018-09-28T02:57:04.324Z,80.60
2018-09-28T02:59:32.569Z,79.70
2018-09-28T03:02:00.903Z,79.60
2018-09-28T03:04:29.370Z,79.40
2018-09-28T03:06:57.590Z,79.20
2018-09-28T03:09:26.048Z,78.80
2018-09-28T03:11:54.351Z,78.40
2018-09-28T03:14:22.978Z,78.60
2018-09-28T03:16:51.322Z,78.50
2018-09-28T03:19:19.683Z,77.70
2018-09-28T03:21:48.539Z,78.80
2018-09-28T03:24:16.780Z,77.50
2018-09-28T03:26:45.004Z,77.50
2018-09-28T03:29:13.583Z,77.40
2018-09-28T03:31:42.153Z,76.80
2018-09-28T03:34:10.485Z,76.50
2018-09-28T03:36:39.146Z,76.80
2018-09-28T03:39:08.057Z,76.80
2018-09-28T03:41:36.934Z,76.90
2018-09-28T03:44:05.564Z,77.00
2018-09-28T03:46:34.264Z,77.40
2018-09-28T03:49:02.692Z,78.00
2018-09-28T03:51:31.074Z,78.40
2018-09-28T03:53:59.482Z,79.10
2018-09-28T03:56:27.834Z,78.80
2018-09-28T03:58:56.379Z,79.30
2018-09-28T04:01:24.737Z,80.10
2018-09-28T04:03:53.215Z,79.20
2018-09-28T04:06:21.655Z,79.70
2018-09-28T04:08:50.237Z,80.30
2018-09-28T04:11:18.588Z,80.30
2018-09-28T04:13:46.980Z,80.60
2018-09-28T04:16:15.464Z,80.70
2018-09-28T04:18:43.761Z,80.80
2018-09-28T04:21:12.413Z,81.50
2018-09-28T04:23:41.374Z,82.00
2018-09-28T04:26:09.656Z,82.30
2018-09-28T04:28:38.438Z,82.60
2018-09-28T04:31:06.985Z,83.20
2018-09-28T04:33:35.536Z,83.70
2018-09-28T04:36:03.889Z,84.50
2018-09-28T04:38:32.286Z,85.00
2018-09-28T04:41:00.740Z,85.20
2018-09-28T04:43:29.116Z,86.10
2018-09-28T04:45:57.445Z,86.70
2018-09-28T04:48:25.803Z,86.80
2018-09-28T04:51:00.609Z,86.80
2018-09-28T04:53:29.081Z,86.90
2018-09-28T04:55:57.355Z,87.70
2018-09-28T04:58:25.679Z,88.40
2018-09-28T05:00:54.150Z,88.20
2018-09-28T05:03:22.855Z,88.20
2018-09-28T05:05:51.449Z,88.90
2018-09-28T05:08:19.946Z,88.40
2018-09-28T05:10:48.430Z,88.20
2018-09-28T05:13:16.913Z,88.60
2018-09-28T05:15:45.236Z,88.80
2018-09-28T05:18:13.746Z,89.50
2018-09-28T05:20:43.039Z,89.50
2018-09-28T05:23:11.615Z,89.60
2018-09-28T05:25:39.932Z,89.80
2018-09-28T05:28:08.500Z,90.20
2018-09-28T05:30:44.968Z,90.10
2018-09-28T05:33:05.708Z,90.30
2018-09-28T05:35:33.998Z,90.50
2018-09-28T05:38:02.334Z,90.70
2018-09-28T05:40:30.813Z,91.20
2018-09-28T05:43:00.725Z,91.10
2018-09-28T05:45:29.731Z,91.10
2018-09-28T05:47:58.833Z,91.70
2018-09-28T05:50:27.390Z,92.10
2018-09-28T05:52:55.842Z,92.60
2018-09-28T05:55:24.665Z,93.20
2018-09-28T05:57:57.312Z,94.00
2018-09-28T06:00:31.381Z,94.10
2018-09-28T06:03:05.992Z,94.70
2018-09-28T06:05:37.753Z,95.30
2018-09-28T06:08:06.597Z,95.30
2018-09-28T06:10:35.935Z,95.40
2018-09-28T06:13:04.736Z,95.80
2018-09-28T06:15:33.271Z,95.70
2018-09-28T06:18:02.267Z,95.70
2018-09-28T06:20:30.928Z,95.80
2018-09-28T06:22:59.508Z,95.80
2018-09-28T06:25:27.971Z,96.10
2018-09-28T06:27:56.936Z,96.10
2018-09-28T06:30:25.503Z,96.20
2018-09-28T06:32:54.067Z,96.40
2018-09-28T06:35:23.249Z,96.80
2018-09-28T06:37:52.196Z,96.80
2018-09-28T06:40:20.920Z,96.90
2018-09-28T06:42:49.442Z,97.10
2018-09-28T06:45:18.834Z,97.20
2018-09-28T06:47:50.455Z,97.30
2018-09-28T06:50:19.361Z,97.20
2018-09-28T06:52:48.191Z,96.90
2018-09-28T06:55:16.713Z,96.90
2018-09-28T06:57:45.147Z,96.60
2018-09-28T07:00:13.937Z,95.30
2018-09-28T07:02:42.692Z,95.00
2018-09-28T07:05:11.653Z,94.10
2018-09-28T07:07:40.128Z,91.30
2018-09-28T07:10:08.511Z,88.40
2018-09-28T07:12:37.039Z,86.20
2018-09-28T07:15:05.792Z,83.50
2018-09-28T07:17:34.258Z,81.90
2018-09-28T07:20:02.715Z,82.10
2018-09-28T07:22:31.275Z,79.70
2018-09-28T07:24:59.688Z,78.90
2018-09-28T07:27:28.535Z,78.10
2018-09-28T07:29:57.222Z,75.50
2018-09-28T07:32:25.527Z,75.80
2018-09-28T07:34:54.003Z,75.00
2018-09-28T07:37:22.488Z,69.90
2018-09-28T07:39:50.885Z,66.00
2018-09-28T07:42:20.069Z,63.80
2018-09-28T07:44:48.249Z,63.50
2018-09-28T07:47:16.974Z,64.20
2018-09-28T07:49:45.334Z,65.10
2018-09-28T07:52:13.762Z,63.20
2018-09-28T07:54:42.461Z,62.90
2018-09-28T07:57:10.925Z,62.40
2018-09-28T07:59:39.265Z,62.70
2018-09-28T08:02:08.564Z,61.60
2018-09-28T08:04:36.951Z,61.20
2018-09-28T08:07:06.205Z,60.10
2018-09-28T08:09:34.855Z,60.40
2018-09-28T08:12:03.487Z,61.10
2018-09-28T08:14:32.044Z,61.00
2018-09-28T08:17:00.315Z,61.30
2018-09-28T08:19:28.862Z,62.20
2018-09-28T08:21:57.232Z,62.60
2018-09-28T08:24:25.518Z,63.10
2018-09-28T08:26:54.150Z,63.80
2018-09-28T08:29:22.525Z,64.10
2018-09-28T08:31:50.859Z,63.60
2018-09-28T08:34:19.247Z,61.60
2018-09-28T08:36:48.202Z,60.90
2018-09-28T08:39:16.446Z,60.90
2018-09-28T08:41:45.048Z,60.50
2018-09-28T08:44:13.549Z,61.50
2018-09-28T08:46:42.029Z,60.70
2018-09-28T08:49:10.364Z,61.50
2018-09-28T08:51:39.058Z,62.20
2018-09-28T08:54:07.403Z,62.80
2018-09-28T08:56:35.700Z,62.90
2018-09-28T08:59:04.193Z,63.40
2018-09-28T09:01:32.693Z,63.60
2018-09-28T09:04:01.060Z,63.40
2018-09-28T09:06:29.426Z,62.30
2018-09-28T09:08:57.917Z,60.90
2018-09-28T09:11:26.243Z,59.80
2018-09-28T09:13:55.281Z,59.20
2018-09-28T09:16:23.954Z,58.40
2018-09-28T09:18:52.364Z,57.60
2018-09-28T09:21:20.913Z,57.60
2018-09-28T09:23:49.323Z,57.20
2018-09-28T09:26:17.567Z,57.70
2018-09-28T09:28:46.584Z,57.60
2018-09-28T09:31:14.922Z,57.20
2018-09-28T09:33:43.283Z,56.60
2018-09-28T09:36:11.941Z,56.60
2018-09-28T09:38:40.675Z,56.20
2018-09-28T09:41:09.094Z,56.20
2018-09-28T09:43:37.354Z,55.20
2018-09-28T09:46:05.897Z,55.30
2018-09-28T09:48:34.449Z,54.90
2018-09-28T09:51:02.913Z,53.50
2018-09-28T09:53:31.374Z,53.20
2018-09-28T09:55:59.889Z,53.60
2018-09-28T09:58:28.257Z,53.30
2018-09-28T10:01:02.060Z,53.30
2018-09-28T10:03:36.086Z,53.60
2018-09-28T10:06:04.718Z,53.90
2018-09-28T10:08:32.985Z,54.40
2018-09-28T10:11:01.493Z,53.50
2018-09-28T10:13:29.997Z,53.40
2018-09-28T10:15:58.542Z,53.90
2018-09-28T10:18:27.070Z,53.50
2018-09-28T10:20:55.491Z,53.30
2018-09-28T10:23:24.097Z,53.60
2018-09-28T10:25:53.206Z,53.70
2018-09-28T10:28:21.729Z,53.60
2018-09-28T10:30:50.139Z,53.50
2018-09-28T10:33:18.670Z,53.20
2018-09-28T10:35:47.347Z,53.10
2018-09-28T10:38:15.672Z,53.40
2018-09-28T10:40:45.400Z,53.20
2018-09-28T10:43:13.726Z,52.90
2018-09-28T10:45:42.047Z,52.90
2018-09-28T10:48:10.519Z,52.70
2018-09-28T10:50:38.870Z,52.40
2018-09-28T10:53:07.492Z,52.60
2018-09-28T10:55:35.809Z,52.10
2018-09-28T10:58:04.191Z,51.70
2018-09-28T11:00:32.518Z,51.20
2018-09-28T11:03:00.809Z,51.00
2018-09-28T11:05:29.108Z,51.00
2018-09-28T11:07:59.006Z,49.70
2018-09-28T11:10:27.414Z,49.10
2018-09-28T11:12:55.736Z,49.10
2018-09-28T11:15:24.082Z,48.90
2018-09-28T11:17:52.444Z,48.90
2018-09-28T11:20:20.893Z,49.20
2018-09-28T11:22:49.256Z,49.60
2018-09-28T11:25:17.590Z,49.60
2018-09-28T11:27:46.551Z,49.40
2018-09-28T11:30:14.812Z,49.20
2018-09-28T11:32:43.248Z,49.00
2018-09-28T11:35:11.576Z,48.80
2018-09-28T11:37:40.001Z,48.10
2018-09-28T11:40:08.315Z,48.80
2018-09-28T11:42:36.673Z,48.30
2018-09-28T11:45:05.162Z,48.20
2018-09-28T11:47:33.525Z,48.40
2018-09-28T11:50:02.581Z,47.80
2018-09-28T11:52:31.041Z,47.50
2018-09-28T11:54:59.416Z,47.20
2018-09-28T11:57:27.744Z,47.60
2018-09-28T11:59:56.240Z,46.80
2018-09-28T12:02:24.691Z,47.30
2018-09-28T12:04:53.059Z,48.10
2018-09-28T12:07:21.500Z,47.60
2018-09-28T12:09:49.995Z,48.80
2018-09-28T12:12:18.258Z,47.00
2018-09-28T12:14:46.996Z,47.20
2018-09-28T12:17:15.413Z,47.70
2018-09-28T12:19:43.919Z,48.50
2018-09-28T12:22:12.246Z,48.10
2018-09-28T12:24:40.649Z,48.00
2018-09-28T12:27:09.171Z,47.30
2018-09-28T12:29:38.766Z,47.40
2018-09-28T12:32:07.184Z,47.50
2018-09-28T12:34:35.494Z,47.90
2018-09-28T12:37:03.780Z,47.90
2018-09-28T12:39:32.222Z,48.60
2018-09-28T12:42:00.558Z,48.80
2018-09-28T12:44:29.645Z,49.10
2018-09-28T12:46:57.972Z,49.00
2018-09-28T12:49:27.014Z,48.20
2018-09-28T12:51:55.584Z,47.10
2018-09-28T12:54:23.880Z,45.00
2018-09-28T12:56:52.656Z,44.00
2018-09-28T12:59:21.106Z,44.00
2018-09-28T13:01:50.432Z,43.00
2018-09-28T13:04:19.686Z,43.00
2018-09-28T13:06:49.554Z,43.10
2018-09-28T13:09:18.674Z,43.10
2018-09-28T13:11:47.203Z,42.80
2018-09-28T13:14:16.865Z,41.90
2018-09-28T13:16:45.335Z,42.20
2018-09-28T13:19:13.720Z,42.40
2018-09-28T13:21:42.299Z,42.80
2018-09-28T13:24:10.671Z,43.00
2018-09-28T13:26:39.107Z,42.70
2018-09-28T13:29:07.434Z,43.00
2018-09-28T13:31:35.666Z,43.90
2018-09-28T13:34:04.124Z,43.20
2018-09-28T13:36:32.473Z,42.90
2018-09-28T13:39:00.766Z,42.30
2018-09-28T13:41:29.411Z,42.10
2018-09-28T13:43:57.767Z,42.00
2018-09-28T13:46:27.314Z,41.90
2018-09-28T13:48:55.718Z,41.00
2018-09-28T13:51:24.122Z,42.20
2018-09-28T13:53:52.504Z,42.50
2018-09-28T13:56:21.252Z,43.00
2018-09-28T13:58:50.342Z,43.30
2018-09-28T14:01:19.196Z,43.30
2018-09-28T14:03:49.300Z,43.30
2018-09-28T14:06:17.704Z,43.70
2018-09-28T14:08:45.952Z,44.20
2018-09-28T14:11:14.576Z,44.00
2018-09-28T14:13:42.958Z,43.30
2018-09-28T14:16:11.486Z,42.30
2018-09-28T14:18:40.008Z,42.80
2018-09-28T14:21:08.325Z,42.90
2018-09-28T14:23:36.693Z,42.80
2018-09-28T14:26:05.140Z,43.20
2018-09-28T14:28:33.589Z,43.40
2018-09-28T14:31:02.153Z,43.60
2018-09-28T14:33:30.676Z,43.20
2018-09-28T14:35:59.126Z,43.10
2018-09-28T14:38:27.762Z,43.40
2018-09-28T14:40:56.080Z,43.60
2018-09-28T14:43:24.540Z,43.50
2018-09-28T14:45:53.090Z,43.40
2018-09-28T14:48:22.446Z,43.50
2018-09-28T14:50:50.809Z,43.70
2018-09-28T14:53:19.403Z,43.20
2018-09-28T14:55:47.829Z,43.20
2018-09-28T14:58:16.203Z,43.70
2018-09-28T15:00:44.607Z,44.00
2018-09-28T15:03:12.977Z,44.20
2018-09-28T15:05:42.011Z,44.30
2018-09-28T15:08:10.553Z,44.50
2018-09-28T15:10:39.161Z,44.50
2018-09-28T15:13:08.300Z,44.20
2018-09-28T15:15:36.638Z,43.60
2018-09-28T15:18:05.225Z,43.00
2018-09-28T15:20:33.540Z,42.80
2018-09-28T15:23:02.060Z,42.70
2018-09-28T15:25:30.565Z,42.80
2018-09-28T15:27:59.092Z,43.10
2018-09-28T15:30:27.418Z,43.20
2018-09-28T15:32:55.832Z,43.50
2018-09-28T15:35:25.008Z,43.70
2018-09-28T15:37:53.246Z,44.00
2018-09-28T15:40:21.945Z,44.10
2018-09-28T15:42:50.661Z,44.40
2018-09-28T15:45:19.113Z,44.50
2018-09-28T15:47:47.815Z,44.90
2018-09-28T15:50:16.238Z,45.00
2018-09-28T15:52:45.037Z,45.40
2018-09-28T15:55:13.390Z,45.50
2018-09-28T15:57:41.750Z,45.80
2018-09-28T16:00:10.348Z,45.90
2018-09-28T16:02:38.731Z,46.00
2018-09-28T16:05:07.059Z,46.20
2018-09-28T16:07:35.383Z,46.90
2018-09-28T16:10:03.988Z,45.80
2018-09-28T16:12:32.290Z,45.30
2018-09-28T16:15:00.706Z,45.20
2018-09-28T16:17:29.923Z,44.70
2018-09-28T16:19:58.515Z,45.00
2018-09-28T16:22:27.001Z,44.30
2018-09-28T16:24:55.788Z,44.00
2018-09-28T16:27:24.933Z,44.00
2018-09-28T16:29:53.673Z,44.30
2018-09-28T16:32:22.616Z,44.30
2018-09-28T16:34:51.197Z,44.50
2018-09-28T16:37:20.138Z,44.50
2018-09-28T16:39:49.169Z,44.60
2018-09-28T16:42:17.455Z,44.60
2018-09-28T16:44:46.301Z,44.60
2018-09-28T16:47:15.545Z,44.70
2018-09-28T16:49:44.134Z,44.80
2018-09-28T16:52:12.895Z,44.90
2018-09-28T16:54:42.688Z,45.10
2018-09-28T16:57:11.913Z,44.70
2018-09-28T16:59:41.030Z,45.00
2018-09-28T17:02:09.570Z,45.00
2018-09-28T17:04:39.692Z,44.90
2018-09-28T17:07:08.660Z,45.20
2018-09-28T17:09:37.776Z,45.20
2018-09-28T17:12:06.540Z,45.40
2018-09-28T17:14:35.059Z,45.40
2018-09-28T17:17:03.752Z,45.40
2018-09-28T17:19:32.807Z,45.30
2018-09-28T17:22:01.812Z,45.80
2018-09-28T17:24:30.220Z,45.30
2018-09-28T17:26:59.307Z,45.60
2018-09-28T17:29:28.487Z,45.60
2018-09-28T17:31:57.674Z,45.60
2018-09-28T17:34:26.622Z,45.70
2018-09-28T17:36:55.132Z,46.30
2018-09-28T17:39:23.679Z,45.70
2018-09-28T17:41:52.285Z,46.60
2018-09-28T17:44:20.940Z,46.10
2018-09-28T17:46:50.219Z,46.30
2018-09-28T17:49:18.930Z,46.30
2018-09-28T17:51:47.749Z,46.20
2018-09-28T17:54:16.272Z,46.50
2018-09-28T17:56:45.019Z,46.40
2018-09-28T17:59:13.654Z,46.50
2018-09-28T18:01:42.414Z,46.60
2018-09-28T18:04:11.845Z,47.30
2018-09-28T18:06:40.327Z,46.60
2018-09-28T18:09:15.872Z,46.70
2018-09-28T18:11:44.786Z,46.80
2018-09-28T18:14:13.539Z,47.00
2018-09-28T18:16:42.278Z,47.20
2018-09-28T18:19:12.042Z,47.30
2018-09-28T18:21:40.932Z,47.40
2018-09-28T18:24:09.841Z,47.50
2018-09-28T18:26:38.855Z,47.40
2018-09-28T18:29:07.669Z,47.70
2018-09-28T18:31:36.160Z,47.80
2018-09-28T18:34:05.353Z,48.00
2018-09-28T18:36:34.008Z,48.30
2018-09-28T18:39:02.721Z,48.40
2018-09-28T18:41:31.184Z,48.30
2018-09-28T18:44:02.611Z,48.40
2018-09-28T18:46:31.035Z,48.40
2018-09-28T18:48:59.688Z,48.60
2018-09-28T18:51:29.090Z,48.60
2018-09-28T18:53:57.873Z,48.70
2018-09-28T18:56:26.547Z,48.90
2018-09-28T18:58:55.555Z,48.90
2018-09-28T19:01:23.998Z,49.10
2018-09-28T19:03:53.260Z,48.80
2018-09-28T19:06:21.929Z,48.80
2018-09-28T19:08:51.099Z,49.10
2018-09-28T19:11:19.901Z,49.20
2018-09-28T19:14:00.874Z,49.20
2018-09-28T19:16:30.687Z,49.30
2018-09-28T19:19:01.226Z,49.40
2018-09-28T19:21:31.761Z,49.50
2018-09-28T19:24:01.482Z,49.60
2018-09-28T19:26:31.440Z,49.90
2018-09-28T19:29:02.739Z,50.10
2018-09-28T19:31:33.265Z,50.30
2018-09-28T19:34:03.153Z,50.40
2018-09-28T19:36:32.240Z,50.60
2018-09-28T19:39:00.752Z,50.70
2018-09-28T19:41:29.508Z,50.80
2018-09-28T19:43:58.121Z,51.00
2018-09-28T19:46:27.409Z,51.20
2018-09-28T19:48:59.303Z,51.30
2018-09-28T19:51:27.868Z,51.20
2018-09-28T19:53:56.822Z,51.20
2018-09-28T19:56:25.523Z,51.60
2018-09-28T19:58:54.109Z,51.70
2018-09-28T20:01:22.635Z,52.00
2018-09-28T20:03:51.868Z,51.90
2018-09-28T20:06:21.522Z,52.00
2018-09-28T20:08:50.013Z,52.00
2018-09-28T20:11:18.495Z,52.10
2018-09-28T20:13:47.256Z,52.20
2018-09-28T20:16:16.236Z,52.30
2018-09-28T20:18:45.562Z,52.50
2018-09-28T20:21:14.033Z,52.60
2018-09-28T20:23:43.937Z,52.60
2018-09-28T20:26:12.318Z,52.80
2018-09-28T20:28:40.896Z,52.90
2018-09-28T20:31:09.433Z,53.10
2018-09-28T20:33:41.530Z,53.30
2018-09-28T20:36:10.267Z,53.40
2018-09-28T20:38:39.035Z,53.30
2018-09-28T20:41:07.518Z,53.50
2018-09-28T20:43:35.993Z,53.80
2018-09-28T20:46:05.135Z,53.80
2018-09-28T20:48:33.839Z,54.00
2018-09-28T20:51:02.347Z,54.20
2018-09-28T20:53:31.033Z,54.20
2018-09-28T20:55:59.838Z,54.30
2018-09-28T20:58:28.540Z,54.20
2018-09-28T21:00:57.245Z,54.40
2018-09-28T21:03:25.775Z,54.50
2018-09-28T21:05:54.228Z,54.60
2018-09-28T21:08:22.912Z,54.90
2018-09-28T21:10:51.328Z,55.10
2018-09-28T21:13:20.299Z,55.30
2018-09-28T21:15:48.665Z,55.50
2018-09-28T21:18:18.143Z,55.70
2018-09-28T21:20:46.559Z,55.70
2018-09-28T21:23:15.062Z,55.80
2018-09-28T21:25:43.751Z,55.90
2018-09-28T21:28:12.238Z,56.60
2018-09-28T21:30:40.683Z,56.10
2018-09-28T21:33:09.323Z,56.10
2018-09-28T21:35:38.021Z,56.00
2018-09-28T21:38:06.535Z,55.80
2018-09-28T21:40:35.168Z,55.70
2018-09-28T21:43:03.651Z,55.50
2018-09-28T21:45:32.064Z,55.40
2018-09-28T21:48:01.667Z,55.30
2018-09-28T21:50:30.401Z,55.40
2018-09-28T21:52:58.909Z,55.60
2018-09-28T21:55:27.460Z,55.40
2018-09-28T21:57:55.869Z,55.40
2018-09-28T22:00:24.499Z,55.70
2018-09-28T22:02:53.302Z,56.00
2018-09-28T22:05:22.243Z,56.30
2018-09-28T22:07:50.883Z,56.50
2018-09-28T22:10:19.402Z,56.60
2018-09-28T22:12:47.609Z,56.60
2018-09-28T22:15:16.187Z,56.70
2018-09-28T22:17:44.570Z,56.50
2018-09-28T22:20:13.006Z,56.70
2018-09-28T22:22:41.726Z,56.70
2018-09-28T22:25:10.463Z,56.90
2018-09-28T22:27:39.077Z,57.10
2018-09-28T22:30:08.273Z,57.30
2018-09-28T22:32:36.755Z,57.30
2018-09-28T22:35:05.304Z,57.50
2018-09-28T22:37:33.834Z,57.50
2018-09-28T22:40:02.338Z,57.50
2018-09-28T22:42:30.734Z,57.50
2018-09-28T22:44:59.284Z,57.50
2018-09-28T22:47:27.545Z,57.60
2018-09-28T22:49:55.904Z,57.70
2018-09-28T22:52:24.240Z,57.60
2018-09-28T22:54:53.464Z,57.90
2018-09-28T22:57:21.884Z,57.80
2018-09-28T22:59:50.956Z,58.10
2018-09-28T23:02:19.239Z,58.10
2018-09-28T23:04:47.534Z,58.20
2018-09-28T23:07:15.927Z,58.20
2018-09-28T23:09:44.576Z,58.20
2018-09-28T23:12:12.972Z,58.40
2018-09-28T23:14:41.441Z,58.30
2018-09-28T23:17:09.875Z,58.30
2018-09-28T23:19:38.501Z,58.50
2018-09-28T23:22:06.917Z,58.60
2018-09-28T23:24:35.548Z,58.50
2018-09-28T23:27:04.141Z,59.10
2018-09-28T23:29:32.963Z,58.30
2018-09-28T23:32:01.315Z,58.30
2018-09-28T23:34:29.768Z,58.20
2018-09-28T23:36:58.283Z,58.60
2018-09-28T23:39:27.051Z,58.70
2018-09-28T23:41:55.334Z,58.70
2018-09-28T23:44:23.915Z,58.60
2018-09-28T23:46:52.407Z,58.60
2018-09-28T23:49:20.744Z,58.60
2018-09-28T23:51:49.632Z,58.70
2018-09-28T23:54:18.074Z,58.80
2018-09-28T23:56:47.065Z,58.80
2018-09-28T23:59:15.547Z,58.80
